Time,TemperatureF,DewpointF,PressureIn,WindDirection,WindDirectionDegrees,WindSpeedMPH,WindSpeedGustMPH,Humidity,HourlyPrecipIn,Conditions,Clouds,dailyrainin,SoftwareType,DateUTC
2013-04-30 00:32:00,52.0,52.0,30.17,WSW,245,-999.0,-999.0,100,-99.99,,,-99.99,,2013-04-30 04:32:00,
2013-04-30 00:42:00,52.0,52.0,30.17,WSW,245,-999.0,-999.0,100,-99.99,,,-99.99,,2013-04-30 04:42:00,
2013-04-30 01:31:00,51.0,51.0,30.17,WSW,245,-999.0,-999.0,100,-99.99,,,-99.99,,2013-04-30 05:31:00,
2013-04-30 01:42:00,51.0,51.0,30.17,WSW,245,-999.0,-999.0,100,-99.99,,,-99.99,,2013-04-30 05:42:00,
2013-04-30 01:51:00,51.0,51.0,30.17,WSW,245,-999.0,-999.0,100,-99.99,,,-99.99,,2013-04-30 05:51:00,
2013-04-30 01:52:00,51.0,51.0,30.17,WSW,245,-999.0,-999.0,100,-99.99,,,-99.99,,2013-04-30 05:52:00,
2013-04-30 02:21:00,51.0,51.0,30.17,WSW,245,-999.0,-999.0,100,-99.99,,,-99.99,,2013-04-30 06:21:00,
2013-04-30 02:32:00,51.0,51.0,30.17,WSW,245,-999.0,-999.0,100,-99.99,,,-99.99,,2013-04-30 06:32:00,
2013-04-30 02:42:00,51.0,51.0,30.17,WSW,245,-999.0,-999.0,100,-99.99,,,-99.99,,2013-04-30 06:42:00,
2013-04-30 02:52:00,51.0,51.0,30.17,WSW,245,-999.0,-999.0,100,-99.99,,,-99.99,,2013-04-30 06:52:00,
2013-04-30 03:21:00,51.0,51.0,30.17,WSW,245,-999.0,-999.0,100,-99.99,,,-99.99,,2013-04-30 07:21:00,
2013-04-30 03:32:00,51.0,51.0,30.17,WSW,245,-999.0,-999.0,100,-99.99,,,-99.99,,2013-04-30 07:32:00,
2013-04-30 03:42:00,51.0,51.0,30.17,WSW,245,-999.0,-999.0,100,-99.99,,,-99.99,,2013-04-30 07:42:00,
2013-04-30 03:52:00,51.0,51.0,30.18,WSW,245,-999.0,-999.0,100,-99.99,,,-99.99,,2013-04-30 07:52:00,
2013-04-30 04:22:00,51.0,51.0,30.18,WSW,245,-999.0,-999.0,100,-99.99,,,-99.99,,2013-04-30 08:22:00,
2013-04-30 04:32:00,51.0,51.0,30.18,WSW,245,-999.0,-999.0,100,-99.99,,,-99.99,,2013-04-30 08:32:00,
2013-04-30 04:42:00,51.0,51.0,30.18,WSW,245,-999.0,-999.0,100,-99.99,,,-99.99,,2013-04-30 08:42:00,
2013-04-30 04:52:00,51.0,51.0,30.19,WSW,245,-999.0,-999.0,100,-99.99,,,-99.99,,2013-04-30 08:52:00,
2013-04-30 05:22:00,51.0,51.0,30.19,WSW,245,-999.0,-999.0,100,-99.99,,,-99.99,,2013-04-30 09:22:00,
2013-04-30 05:33:00,51.0,51.0,30.19,WSW,245,-999.0,-999.0,100,-99.99,,,-99.99,,2013-04-30 09:33:00,
2013-04-30 05:43:00,51.0,51.0,30.19,WSW,245,-999.0,-999.0,100,-99.99,,,-99.99,,2013-04-30 09:43:00,
2013-04-30 05:52:00,51.0,51.0,30.20,WSW,245,-999.0,-999.0,100,-99.99,,,-99.99,,2013-04-30 09:52:00,
2013-04-30 06:22:00,51.0,51.0,30.20,WSW,245,-999.0,-999.0,100,-99.99,,,-99.99,,2013-04-30 10:22:00,
2013-04-30 06:32:00,51.0,51.0,30.20,WSW,245,-999.0,-999.0,100,-99.99,,,-99.99,,2013-04-30 10:32:00,
2013-04-30 06:41:00,51.0,51.0,30.20,WSW,245,-999.0,-999.0,100,-99.99,,,-99.99,,2013-04-30 10:41:00,
2013-04-30 07:21:00,50.0,50.0,30.21,WSW,245,-999.0,-999.0,100,-99.99,,,-99.99,,2013-04-30 11:21:00,
2013-04-30 07:32:00,50.0,50.0,30.21,WSW,245,-999.0,-999.0,100,-99.99,,,-99.99,,2013-04-30 11:32:00,
2013-04-30 07:42:00,50.0,50.0,30.21,WSW,245,-999.0,-999.0,100,-99.99,,,-99.99,,2013-04-30 11:42:00,
2013-04-30 07:51:00,50.0,50.0,30.21,WSW,245,-999.0,-999.0,100,-99.99,,,-99.99,,2013-04-30 11:51:00,
2013-04-30 08:22:00,51.0,51.0,30.23,WSW,245,-999.0,-999.0,100,-99.99,,,-99.99,,2013-04-30 12:22:00,
2013-04-30 08:31:00,51.0,51.0,30.23,WSW,245,-999.0,-999.0,100,-99.99,,,-99.99,,2013-04-30 12:31:00,
2013-04-30 08:41:00,51.0,51.0,30.23,WSW,245,-999.0,-999.0,100,-99.99,,,-99.99,,2013-04-30 12:41:00,
2013-04-30 08:51:00,51.0,51.0,30.23,WSW,245,-999.0,-999.0,100,-99.99,,,-99.99,,2013-04-30 12:51:00,
2013-04-30 08:52:00,54.0,52.0,30.25,WSW,245,-999.0,-999.0,94,-99.99,,,-99.99,,2013-04-30 12:52:00,
2013-04-30 09:21:00,54.0,52.0,30.25,WSW,245,-999.0,-999.0,94,-99.99,,,-99.99,,2013-04-30 13:21:00,
2013-04-30 09:31:00,54.0,52.0,30.25,WSW,245,-999.0,-999.0,94,-99.99,,,-99.99,,2013-04-30 13:31:00,
2013-04-30 09:41:00,54.0,52.0,30.25,WSW,245,-999.0,-999.0,94,-99.99,,,-99.99,,2013-04-30 13:41:00,
2013-04-30 09:52:00,57.0,44.0,30.26,WSW,245,-999.0,-999.0,63,-99.99,,,-99.99,,2013-04-30 13:52:00,
2013-04-30 10:31:00,57.0,44.0,30.26,WSW,245,-999.0,-999.0,63,-99.99,,,-99.99,,2013-04-30 14:31:00,
2013-04-30 10:41:00,57.0,44.0,30.26,WSW,245,-999.0,-999.0,63,-99.99,,,-99.99,,2013-04-30 14:41:00,
2013-04-30 10:52:00,58.0,44.0,30.25,WSW,245,-999.0,-999.0,57,-99.99,,,-99.99,,2013-04-30 14:52:00,
2013-04-30 11:21:00,58.0,44.0,30.25,WSW,245,-999.0,-999.0,57,-99.99,,,-99.99,,2013-04-30 15:21:00,
2013-04-30 11:32:00,58.0,44.0,30.25,WSW,245,-999.0,-999.0,57,-99.99,,,-99.99,,2013-04-30 15:32:00,
2013-04-30 11:42:00,58.0,44.0,30.25,WSW,245,-999.0,-999.0,57,-99.99,,,-99.99,,2013-04-30 15:42:00,
2013-04-30 11:52:00,62.0,44.0,30.25,WSW,245,-999.0,-999.0,51,-99.99,,,-99.99,,2013-04-30 15:52:00,
2013-04-30 12:23:00,62.0,44.0,30.25,WSW,245,-999.0,-999.0,51,-99.99,,,-99.99,,2013-04-30 16:23:00,
2013-04-30 12:33:00,62.0,44.0,30.25,WSW,245,-999.0,-999.0,51,-99.99,,,-99.99,,2013-04-30 16:33:00,
2013-04-30 12:42:00,62.0,44.0,30.25,WSW,245,-999.0,-999.0,51,-99.99,,,-99.99,,2013-04-30 16:42:00,
2013-04-30 12:52:00,63.0,41.0,30.24,WSW,245,-999.0,-999.0,46,-99.99,,,-99.99,,2013-04-30 16:52:00,
2013-04-30 13:32:00,63.0,41.0,30.24,WSW,245,-999.0,-999.0,46,-99.99,,,-99.99,,2013-04-30 17:32:00,
2013-04-30 13:42:00,63.0,41.0,30.24,WSW,245,-999.0,-999.0,46,-99.99,,,-99.99,,2013-04-30 17:42:00,
2013-04-30 13:52:00,64.0,40.0,30.24,WSW,245,-999.0,2.0,41,-99.99,,,-99.99,,2013-04-30 17:52:00,
2013-04-30 14:22:00,64.0,40.0,30.24,WSW,245,-999.0,2.0,41,-99.99,,,-99.99,,2013-04-30 18:22:00,
2013-04-30 14:32:00,64.0,40.0,30.24,WSW,245,-999.0,2.0,41,-99.99,,,-99.99,,2013-04-30 18:32:00,
2013-04-30 14:42:00,64.0,40.0,30.24,WSW,245,-999.0,2.0,41,-99.99,,,-99.99,,2013-04-30 18:42:00,
2013-04-30 14:52:00,63.0,37.0,30.24,ESE,123,-999.0,-999.0,37,-99.99,,,-99.99,,2013-04-30 18:52:00,
2013-04-30 15:32:00,63.0,37.0,30.24,ESE,123,-999.0,-999.0,37,-99.99,,,-99.99,,2013-04-30 19:32:00,
2013-04-30 15:42:00,63.0,37.0,30.24,ESE,123,-999.0,-999.0,37,-99.99,,,-99.99,,2013-04-30 19:42:00,
2013-04-30 15:52:00,64.0,31.0,30.24,ESE,117,-999.0,8.0,30,-99.99,,,-99.99,,2013-04-30 19:52:00,
2013-04-30 16:22:00,64.0,31.0,30.24,ESE,117,-999.0,8.0,30,-99.99,,,-99.99,,2013-04-30 20:22:00,
2013-04-30 16:32:00,64.0,31.0,30.24,ESE,117,-999.0,8.0,30,-99.99,,,-99.99,,2013-04-30 20:32:00,
2013-04-30 16:42:00,64.0,31.0,30.24,ESE,117,-999.0,8.0,30,-99.99,,,-99.99,,2013-04-30 20:42:00,
2013-04-30 16:52:00,63.0,15.0,30.26,ESE,106,-999.0,-999.0,15,-99.99,,,-99.99,,2013-04-30 20:52:00,
2013-04-30 17:32:00,63.0,15.0,30.26,ESE,106,-999.0,-999.0,15,-99.99,,,-99.99,,2013-04-30 21:32:00,
2013-04-30 17:42:00,63.0,15.0,30.26,ESE,106,-999.0,-999.0,15,-99.99,,,-99.99,,2013-04-30 21:42:00,
2013-04-30 17:52:00,61.0,24.0,30.27,ESE,106,-999.0,-999.0,25,-99.99,,,-99.99,,2013-04-30 21:52:00,
2013-04-30 18:33:00,61.0,24.0,30.27,ESE,106,-999.0,-999.0,25,-99.99,,,-99.99,,2013-04-30 22:33:00,
2013-04-30 18:42:00,61.0,24.0,30.27,ESE,106,-999.0,-999.0,25,-99.99,,,-99.99,,2013-04-30 22:42:00,
2013-04-30 18:52:00,59.0,32.0,30.27,ESE,106,-999.0,-999.0,37,-99.99,,,-99.99,,2013-04-30 22:52:00,
2013-04-30 19:22:00,59.0,32.0,30.27,ESE,106,-999.0,-999.0,37,-99.99,,,-99.99,,2013-04-30 23:22:00,
2013-04-30 19:32:00,59.0,32.0,30.27,ESE,106,-999.0,-999.0,37,-99.99,,,-99.99,,2013-04-30 23:32:00,
2013-04-30 19:42:00,59.0,32.0,30.27,ESE,106,-999.0,-999.0,37,-99.99,,,-99.99,,2013-04-30 23:42:00,
2013-04-30 20:22:00,54.0,32.0,30.28,ESE,106,-999.0,-999.0,43,-99.99,,,-99.99,,2013-05-01 00:22:00,
2013-04-30 20:32:00,54.0,32.0,30.28,ESE,106,-999.0,-999.0,43,-99.99,,,-99.99,,2013-05-01 00:32:00,
2013-04-30 20:42:00,54.0,32.0,30.28,ESE,106,-999.0,-999.0,43,-99.99,,,-99.99,,2013-05-01 00:42:00,
2013-04-30 20:51:00,54.0,32.0,30.28,ESE,106,-999.0,-999.0,43,-99.99,,,-99.99,,2013-05-01 00:51:00,
2013-04-30 20:52:00,48.0,34.0,30.29,ESE,106,-999.0,-999.0,57,-99.99,,,-99.99,,2013-05-01 00:52:00,
2013-04-30 21:32:00,48.0,34.0,30.29,ESE,106,-999.0,-999.0,57,-99.99,,,-99.99,,2013-05-01 01:32:00,
2013-04-30 21:42:00,48.0,34.0,30.29,ESE,106,-999.0,-999.0,57,-99.99,,,-99.99,,2013-05-01 01:42:00,
2013-04-30 21:52:00,45.0,35.0,30.29,ESE,106,-999.0,-999.0,67,-99.99,,,-99.99,,2013-05-01 01:52:00,
2013-04-30 22:32:00,45.0,35.0,30.29,ESE,106,-999.0,-999.0,67,-99.99,,,-99.99,,2013-05-01 02:32:00,
2013-04-30 22:42:00,45.0,35.0,30.29,ESE,106,-999.0,-999.0,67,-99.99,,,-99.99,,2013-05-01 02:42:00,
2013-04-30 22:52:00,43.0,36.0,30.29,ESE,106,-999.0,-999.0,76,-99.99,,,-99.99,,2013-05-01 02:52:00,
2013-04-30 23:33:00,43.0,36.0,30.29,ESE,106,-999.0,-999.0,76,-99.99,,,-99.99,,2013-05-01 03:33:00,
2013-04-30 23:43:00,43.0,36.0,30.29,ESE,106,-999.0,-999.0,76,-99.99,,,-99.99,,2013-05-01 03:43:00,
2013-04-30 23:52:00,41.0,36.0,30.30,ESE,106,-999.0,-999.0,83,-99.99,,,-99.99,,2013-05-01 03:52:00,